Shinkaiho — JD3177 — position and weather

sailwx.info

Track history (hours):
 
Tides and Currents Weather Stations Pressure Air Temp Water Temp Dewpoint Dewpoint Depression Visibility Wind Speed Wind Dir Waves Ship Positions

Shinkaiho

Last reported at 2017-Dec-09 02:18 UTC. Time now 2017-Dec-13 05:13 UTC.
Position N 35°29' E 139°52'.

Length 34 m; draft 4.8 m.

Type: Tug. MMSI: 431002459.

Date/timePositionNaut miles runAvg speedWind from/ knotsBaromVisibWave heightAir tempDewpointWater temp
2017-Dec-09 02:18N 35°29' E 139°52'2 7.7
2017-Dec-09 02:00N 35°28' E 139°51'4 7.8
2017-Dec-09 01:30N 35°25' E 139°47'4 7.8
2017-Dec-09 01:00N 35°21' E 139°45'4 7.0
2017-Dec-09 00:28N 35°18' E 139°45'7 7.7
2017-Dec-08 23:33N 35°11' E 139°47'0 4.7
2017-Dec-08 23:28N 35°10' E 139°47'3 6.1
2017-Dec-08 22:59N 35°07' E 139°46'4 8.3
2017-Dec-08 22:30N 35°05' E 139°42'5 8.8
2017-Dec-08 21:57N 35°02' E 139°38'43 9.2
2017-Dec-08 17:21N 34°34' E 138°59'199 6.9
2017-Dec-07 12:39N 34°01' E 135°02'1 8.4
2017-Dec-07 12:30N 34°03' E 135°02'4 8.5
2017-Dec-07 12:00N 34°07' E 135°02'4 8.5
2017-Dec-07 11:30N 34°11' E 135°02'4 6.5
2017-Dec-07 10:56N 34°15' E 135°03'3 7.0
2017-Dec-07 10:30N 34°18' E 135°04'4 8.3
2017-Dec-07 10:00N 34°21' E 135°06'5 8.9
2017-Dec-07 09:30N 34°25' E 135°09'4 8.7
2017-Dec-07 09:00N 34°28' E 135°13'4 8.3
2017-Dec-07 08:30N 34°31' E 135°17'4 8.1
2017-Dec-07 08:00N 34°34' E 135°20'4 7.7
2017-Dec-07 07:30N 34°36' E 135°23'3 7.0
2017-Dec-07 07:00N 34°35' E 135°27'0 0.1
2017-Dec-07 06:30N 34°35' E 135°27'0 0.0
2017-Dec-07 06:00N 34°35' E 135°27'0 0.0
2017-Dec-07 05:30N 34°35' E 135°27'0 0.0
2017-Dec-07 05:00N 34°35' E 135°27'0 0.0
2017-Dec-07 04:30N 34°35' E 135°27'0 0.0
2017-Dec-07 04:00N 34°35' E 135°27'0 0.0
2017-Dec-07 03:27N 34°35' E 135°27'0 0.0
2017-Dec-07 03:00N 34°35' E 135°27'0 0.0
2017-Dec-07 02:30N 34°35' E 135°27'0 0.0
2017-Dec-07 02:00N 34°35' E 135°27'0 0.0
2017-Dec-07 01:30N 34°35' E 135°27'0 0.0
2017-Dec-07 01:00N 34°35' E 135°27'0 0.0
2017-Dec-07 00:30N 34°35' E 135°27'0 0.0
2017-Dec-07 00:00N 34°35' E 135°27'0 0.0
2017-Dec-06 23:30N 34°35' E 135°27'0 0.0
2017-Dec-06 22:57N 34°35' E 135°27'0 0.0
2017-Dec-06 22:27N 34°35' E 135°27'0 0.0
2017-Dec-06 21:57N 34°35' E 135°27'0 0.0
2017-Dec-06 21:27N 34°35' E 135°27'0 0.0
2017-Dec-06 20:57N 34°35' E 135°27'  
2017-Dec-04 10:30N 34°17' E 134°59'2 3.1
2017-Dec-04 10:00N 34°15' E 134°59'2 3.1
2017-Dec-04 09:30N 34°14' E 134°59'6 0.1
2017-Dec-02 09:42N 34°09' E 134°56'310.4
2017-Dec-02 09:24N 34°12' E 134°57'410.1
2017-Dec-02 08:59N 34°16' E 134°58'5 9.6
2017-Dec-02 08:30N 34°20' E 134°60'510.4
2017-Dec-02 08:00N 34°25' E 135°02'510.4
2017-Dec-02 07:30N 34°30' E 135°06'611.1
2017-Dec-02 07:00N 34°35' E 135°09'510.3
2017-Dec-02 06:30N 34°39' E 135°11'3 6.2
2017-Dec-02 06:00N 34°41' E 135°14'0 0.9
2017-Dec-02 05:30N 34°41' E 135°15'4 7.0
2017-Dec-02 05:00N 34°38' E 135°15'5 9.0
2017-Dec-02 04:30N 34°36' E 135°10'5 9.5
2017-Dec-02 04:00N 34°35' E 135°04'611.0
2017-Dec-02 03:29N 34°36' E 134°57'610.5
2017-Dec-02 02:55N 34°34' E 134°51'110 7.1
2017-Dec-01 11:22N 34°03' E 132°42'3 9.0
2017-Dec-01 11:00N 34°02' E 132°39'50 8.5
2017-Dec-01 05:04N 33°46' E 131°41'2 8.6
2017-Dec-01 04:49N 33°46' E 131°39'3 8.5
2017-Dec-01 04:30N 33°47' E 131°36'4 8.7
2017-Dec-01 04:00N 33°48' E 131°31'4 9.0
2017-Dec-01 03:30N 33°49' E 131°25'5 9.1
2017-Dec-01 03:00N 33°50' E 131°20'5 9.2
2017-Dec-01 02:30N 33°51' E 131°15'5 9.1
2017-Dec-01 02:00N 33°53' E 131°10'5 9.1
2017-Dec-01 01:29N 33°55' E 131°05'4 8.8
2017-Dec-01 01:00N 33°58' E 131°01'4 7.1
2017-Dec-01 00:30N 33°57' E 130°57'3 6.7
2017-Dec-01 00:00N 33°54' E 130°55'3 6.0
2017-Nov-30 23:30N 33°56' E 130°52'2 4.9
2017-Nov-30 23:00N 33°59' E 130°53'1 2.4
2017-Nov-30 22:30N 33°60' E 130°52'2 3.1
2017-Nov-30 22:00N 34°01' E 130°51'2 3.4
2017-Nov-30 21:30N 34°03' E 130°50'2 3.5
2017-Nov-30 21:00N 34°04' E 130°51'3 5.5
2017-Nov-30 20:30N 34°07' E 130°50'4 7.2
2017-Nov-30 20:00N 34°10' E 130°49'4 7.2
2017-Nov-30 19:30N 34°14' E 130°48'4 7.4
2017-Nov-30 18:56N 34°18' E 130°48'5 8.4
2017-Nov-30 18:21N 34°23' E 130°49'  
Track history (hours):
 
Tides and Currents Weather Stations Pressure Air Temp Water Temp Dewpoint Dewpoint Depression Visibility Wind Speed Wind Dir Waves Ship Positions

Shinkaiho

Last reported at 2017-Dec-09 02:18 UTC. Time now 2017-Dec-13 05:13 UTC.
Position N 35°29' E 139°52'.

Length 34 m; draft 4.8 m.

Type: Tug. MMSI: 431002459.

Date/timePositionNaut miles runAvg speedWind from/ knotsBaromVisibWave heightAir tempDewpointWater temp
2017-Dec-09 02:18N 35°29' E 139°52'2 7.7
2017-Dec-09 02:00N 35°28' E 139°51'4 7.8
2017-Dec-09 01:30N 35°25' E 139°47'4 7.8
2017-Dec-09 01:00N 35°21' E 139°45'4 7.0
2017-Dec-09 00:28N 35°18' E 139°45'7 7.7
2017-Dec-08 23:33N 35°11' E 139°47'0 4.7
2017-Dec-08 23:28N 35°10' E 139°47'3 6.1
2017-Dec-08 22:59N 35°07' E 139°46'4 8.3
2017-Dec-08 22:30N 35°05' E 139°42'5 8.8
2017-Dec-08 21:57N 35°02' E 139°38'43 9.2
2017-Dec-08 17:21N 34°34' E 138°59'199 6.9
2017-Dec-07 12:39N 34°01' E 135°02'1 8.4
2017-Dec-07 12:30N 34°03' E 135°02'4 8.5
2017-Dec-07 12:00N 34°07' E 135°02'4 8.5
2017-Dec-07 11:30N 34°11' E 135°02'4 6.5
2017-Dec-07 10:56N 34°15' E 135°03'3 7.0
2017-Dec-07 10:30N 34°18' E 135°04'4 8.3
2017-Dec-07 10:00N 34°21' E 135°06'5 8.9
2017-Dec-07 09:30N 34°25' E 135°09'4 8.7
2017-Dec-07 09:00N 34°28' E 135°13'4 8.3
2017-Dec-07 08:30N 34°31' E 135°17'4 8.1
2017-Dec-07 08:00N 34°34' E 135°20'4 7.7
2017-Dec-07 07:30N 34°36' E 135°23'3 7.0
2017-Dec-07 07:00N 34°35' E 135°27'0 0.1
2017-Dec-07 06:30N 34°35' E 135°27'0 0.0
2017-Dec-07 06:00N 34°35' E 135°27'0 0.0
2017-Dec-07 05:30N 34°35' E 135°27'0 0.0
2017-Dec-07 05:00N 34°35' E 135°27'0 0.0
2017-Dec-07 04:30N 34°35' E 135°27'0 0.0
2017-Dec-07 04:00N 34°35' E 135°27'0 0.0
2017-Dec-07 03:27N 34°35' E 135°27'0 0.0
2017-Dec-07 03:00N 34°35' E 135°27'0 0.0
2017-Dec-07 02:30N 34°35' E 135°27'0 0.0
2017-Dec-07 02:00N 34°35' E 135°27'0 0.0
2017-Dec-07 01:30N 34°35' E 135°27'0 0.0
2017-Dec-07 01:00N 34°35' E 135°27'0 0.0
2017-Dec-07 00:30N 34°35' E 135°27'0 0.0
2017-Dec-07 00:00N 34°35' E 135°27'0 0.0
2017-Dec-06 23:30N 34°35' E 135°27'0 0.0
2017-Dec-06 22:57N 34°35' E 135°27'0 0.0
2017-Dec-06 22:27N 34°35' E 135°27'0 0.0
2017-Dec-06 21:57N 34°35' E 135°27'0 0.0
2017-Dec-06 21:27N 34°35' E 135°27'0 0.0
2017-Dec-06 20:57N 34°35' E 135°27'  
2017-Dec-04 10:30N 34°17' E 134°59'2 3.1
2017-Dec-04 10:00N 34°15' E 134°59'2 3.1
2017-Dec-04 09:30N 34°14' E 134°59'6 0.1
2017-Dec-02 09:42N 34°09' E 134°56'310.4
2017-Dec-02 09:24N 34°12' E 134°57'410.1
2017-Dec-02 08:59N 34°16' E 134°58'5 9.6
2017-Dec-02 08:30N 34°20' E 134°60'510.4
2017-Dec-02 08:00N 34°25' E 135°02'510.4
2017-Dec-02 07:30N 34°30' E 135°06'611.1
2017-Dec-02 07:00N 34°35' E 135°09'510.3
2017-Dec-02 06:30N 34°39' E 135°11'3 6.2
2017-Dec-02 06:00N 34°41' E 135°14'0 0.9
2017-Dec-02 05:30N 34°41' E 135°15'4 7.0
2017-Dec-02 05:00N 34°38' E 135°15'5 9.0
2017-Dec-02 04:30N 34°36' E 135°10'5 9.5
2017-Dec-02 04:00N 34°35' E 135°04'611.0
2017-Dec-02 03:29N 34°36' E 134°57'610.5
2017-Dec-02 02:55N 34°34' E 134°51'110 7.1
2017-Dec-01 11:22N 34°03' E 132°42'3 9.0
2017-Dec-01 11:00N 34°02' E 132°39'50 8.5
2017-Dec-01 05:04N 33°46' E 131°41'2 8.6
2017-Dec-01 04:49N 33°46' E 131°39'3 8.5
2017-Dec-01 04:30N 33°47' E 131°36'4 8.7
2017-Dec-01 04:00N 33°48' E 131°31'4 9.0
2017-Dec-01 03:30N 33°49' E 131°25'5 9.1
2017-Dec-01 03:00N 33°50' E 131°20'5 9.2
2017-Dec-01 02:30N 33°51' E 131°15'5 9.1
2017-Dec-01 02:00N 33°53' E 131°10'5 9.1
2017-Dec-01 01:29N 33°55' E 131°05'4 8.8
2017-Dec-01 01:00N 33°58' E 131°01'4 7.1
2017-Dec-01 00:30N 33°57' E 130°57'3 6.7
2017-Dec-01 00:00N 33°54' E 130°55'3 6.0
2017-Nov-30 23:30N 33°56' E 130°52'2 4.9
2017-Nov-30 23:00N 33°59' E 130°53'1 2.4
2017-Nov-30 22:30N 33°60' E 130°52'2 3.1
2017-Nov-30 22:00N 34°01' E 130°51'2 3.4
2017-Nov-30 21:30N 34°03' E 130°50'2 3.5
2017-Nov-30 21:00N 34°04' E 130°51'3 5.5
2017-Nov-30 20:30N 34°07' E 130°50'4 7.2
2017-Nov-30 20:00N 34°10' E 130°49'4 7.2
2017-Nov-30 19:30N 34°14' E 130°48'4 7.4
2017-Nov-30 18:56N 34°18' E 130°48'5 8.4
2017-Nov-30 18:21N 34°23' E 130°49'  

Dump ship's entire track history